Time,TemperatureF,DewpointF,PressureIn,WindDirection,WindDirectionDegrees,WindSpeedMPH,WindSpeedGustMPH,Humidity,HourlyPrecipIn,Conditions,Clouds,dailyrainin,SoftwareType,DateUTC
2013-01-25 00:04:00,66.0,-99.9,30.27,NW,315,6.0,7.0,-999,-99.99,,,-99.99,,2013-01-25 05:04:00,
2013-01-25 00:12:00,66.0,-99.9,30.26,NW,314,8.0,10.0,-999,-99.99,,,-99.99,,2013-01-25 05:12:00,
2013-01-25 00:22:00,66.0,-99.9,30.26,NW,312,6.0,8.0,-999,-99.99,,,-99.99,,2013-01-25 05:22:00,
2013-01-25 00:32:00,66.0,-99.9,30.26,NW,312,7.0,8.0,-999,-99.99,,,-99.99,,2013-01-25 05:32:00,
2013-01-25 00:43:00,65.0,-99.9,30.26,WNW,302,6.0,8.0,-999,-99.99,,,-99.99,,2013-01-25 05:43:00,
2013-01-25 00:52:00,65.0,-99.9,30.26,NW,307,6.0,10.0,-999,-99.99,,,-99.99,,2013-01-25 05:52:00,
2013-01-25 01:02:00,65.0,-99.9,30.25,NW,304,7.0,8.0,-999,-99.99,,,-99.99,,2013-01-25 06:02:00,
2013-01-25 01:12:00,65.0,-99.9,30.25,NW,308,6.0,7.0,-999,-99.99,,,-99.99,,2013-01-25 06:12:00,
2013-01-25 01:22:00,65.0,-99.9,30.25,NW,320,6.0,8.0,-999,-99.99,,,-99.99,,2013-01-25 06:22:00,
2013-01-25 01:32:00,64.0,-99.9,30.26,NW,304,6.0,9.0,-999,-99.99,,,-99.99,,2013-01-25 06:32:00,
2013-01-25 01:42:00,64.0,-99.9,30.25,NW,305,4.0,8.0,-999,-99.99,,,-99.99,,2013-01-25 06:42:00,
2013-01-25 01:52:00,64.0,-99.9,30.25,WNW,303,5.0,6.0,-999,-99.99,,,-99.99,,2013-01-25 06:52:00,
2013-01-25 02:02:00,63.0,-99.9,30.25,WNW,298,7.0,10.0,-999,-99.99,,,-99.99,,2013-01-25 07:02:00,
2013-01-25 02:11:00,63.0,-99.9,30.25,NW,317,9.0,11.0,-999,-99.99,,,-99.99,,2013-01-25 07:11:00,
2013-01-25 02:22:00,64.0,-99.9,30.25,NW,315,9.0,11.0,-999,-99.99,,,-99.99,,2013-01-25 07:22:00,
2013-01-25 02:32:00,64.0,-99.9,30.25,NW,312,9.0,11.0,-999,-99.99,,,-99.99,,2013-01-25 07:32:00,
2013-01-25 02:42:00,64.0,-99.9,30.24,NW,318,11.0,13.0,-999,-99.99,,,-99.99,,2013-01-25 07:42:00,
2013-01-25 02:52:00,64.0,-99.9,30.24,NW,314,9.0,13.0,-999,-99.99,,,-99.99,,2013-01-25 07:52:00,
2013-01-25 03:02:00,64.0,-99.9,30.24,NW,318,12.0,15.0,-999,-99.99,,,-99.99,,2013-01-25 08:02:00,
2013-01-25 03:12:00,63.0,-99.9,30.24,NW,320,9.0,13.0,-999,-99.99,,,-99.99,,2013-01-25 08:12:00,
2013-01-25 03:22:00,63.0,-99.9,30.24,NW,318,11.0,14.0,-999,-99.99,,,-99.99,,2013-01-25 08:22:00,
2013-01-25 03:32:00,63.0,-99.9,30.24,NW,318,12.0,16.0,-999,-99.99,,,-99.99,,2013-01-25 08:32:00,
2013-01-25 03:42:00,63.0,-99.9,30.24,NW,318,11.0,14.0,-999,-99.99,,,-99.99,,2013-01-25 08:42:00,
2013-01-25 03:52:00,63.0,-99.9,30.24,NW,316,12.0,15.0,-999,-99.99,,,-99.99,,2013-01-25 08:52:00,
2013-01-25 04:02:00,63.0,-99.9,30.23,NW,315,10.0,13.0,-999,-99.99,,,-99.99,,2013-01-25 09:02:00,
2013-01-25 04:11:00,63.0,-99.9,30.24,NW,315,9.0,12.0,-999,-99.99,,,-99.99,,2013-01-25 09:11:00,
2013-01-25 04:21:00,63.0,-99.9,30.24,NW,315,10.0,13.0,-999,-99.99,,,-99.99,,2013-01-25 09:21:00,
2013-01-25 04:32:00,63.0,-99.9,30.24,NW,308,8.0,12.0,-999,-99.99,,,-99.99,,2013-01-25 09:32:00,
2013-01-25 04:42:00,62.0,-99.9,30.23,NW,304,9.0,11.0,-999,-99.99,,,-99.99,,2013-01-25 09:42:00,
2013-01-25 04:52:00,62.0,-99.9,30.23,NW,307,10.0,11.0,-999,-99.99,,,-99.99,,2013-01-25 09:52:00,
2013-01-25 05:02:00,62.0,-99.9,30.23,NW,311,10.0,12.0,-999,-99.99,,,-99.99,,2013-01-25 10:02:00,
2013-01-25 05:12:00,63.0,-99.9,30.23,NW,310,10.0,12.0,-999,-99.99,,,-99.99,,2013-01-25 10:12:00,
2013-01-25 05:22:00,63.0,-99.9,30.23,NW,312,9.0,13.0,-999,-99.99,,,-99.99,,2013-01-25 10:22:00,
2013-01-25 05:32:00,63.0,-99.9,30.23,NW,316,10.0,13.0,-999,-99.99,,,-99.99,,2013-01-25 10:32:00,
2013-01-25 05:42:00,63.0,-99.9,30.23,NW,309,9.0,11.0,-999,-99.99,,,-99.99,,2013-01-25 10:42:00,
2013-01-25 05:52:00,63.0,-99.9,30.23,NW,306,9.0,11.0,-999,-99.99,,,-99.99,,2013-01-25 10:52:00,
2013-01-25 06:03:00,62.0,-99.9,30.24,WNW,301,9.0,11.0,-999,-99.99,,,-99.99,,2013-01-25 11:03:00,
2013-01-25 06:11:00,62.0,-99.9,30.24,NW,312,10.0,12.0,-999,-99.99,,,-99.99,,2013-01-25 11:11:00,
2013-01-25 06:22:00,62.0,-99.9,30.24,NW,310,11.0,13.0,-999,-99.99,,,-99.99,,2013-01-25 11:22:00,
2013-01-25 06:33:00,62.0,-99.9,30.24,NW,312,9.0,13.0,-999,-99.99,,,-99.99,,2013-01-25 11:33:00,
2013-01-25 06:42:00,62.0,-99.9,30.25,NW,310,10.0,13.0,-999,-99.99,,,-99.99,,2013-01-25 11:42:00,
2013-01-25 06:52:00,61.0,-99.9,30.25,NW,313,11.0,15.0,-999,-99.99,,,-99.99,,2013-01-25 11:52:00,
2013-01-25 07:03:00,61.0,-99.9,30.25,NW,311,11.0,14.0,-999,-99.99,,,-99.99,,2013-01-25 12:03:00,
2013-01-25 07:12:00,61.0,-99.9,30.25,NW,313,11.0,14.0,-999,-99.99,,,-99.99,,2013-01-25 12:12:00,
2013-01-25 07:22:00,60.0,-99.9,30.25,NW,309,10.0,14.0,-999,-99.99,,,-99.99,,2013-01-25 12:22:00,
2013-01-25 07:33:00,60.0,-99.9,30.26,NW,312,9.0,12.0,-999,-99.99,,,-99.99,,2013-01-25 12:33:00,
2013-01-25 07:42:00,60.0,-99.9,30.26,NW,311,10.0,12.0,-999,-99.99,,,-99.99,,2013-01-25 12:42:00,
2013-01-25 07:53:00,60.0,-99.9,30.26,NW,311,10.0,14.0,-999,-99.99,,,-99.99,,2013-01-25 12:53:00,
2013-01-25 08:03:00,60.0,-99.9,30.27,NW,312,11.0,14.0,-999,-99.99,,,-99.99,,2013-01-25 13:03:00,
2013-01-25 08:12:00,61.0,-99.9,30.27,NW,312,11.0,14.0,-999,-99.99,,,-99.99,,2013-01-25 13:12:00,
2013-01-25 08:22:00,61.0,-99.9,30.27,NW,317,11.0,14.0,-999,-99.99,,,-99.99,,2013-01-25 13:22:00,
2013-01-25 08:33:00,62.0,-99.9,30.27,NW,318,11.0,14.0,-999,-99.99,,,-99.99,,2013-01-25 13:33:00,
2013-01-25 08:43:00,63.0,-99.9,30.27,NW,318,12.0,14.0,-999,-99.99,,,-99.99,,2013-01-25 13:43:00,
2013-01-25 08:53:00,63.0,-99.9,30.27,NW,319,14.0,17.0,-999,-99.99,,,-99.99,,2013-01-25 13:53:00,
2013-01-25 09:03:00,64.0,-99.9,30.27,NW,322,12.0,16.0,-999,-99.99,,,-99.99,,2013-01-25 14:03:00,
2013-01-25 09:13:00,64.0,-99.9,30.28,NNW,329,12.0,15.0,-999,-99.99,,,-99.99,,2013-01-25 14:13:00,
2013-01-25 09:23:00,65.0,-99.9,30.28,NNW,328,11.0,14.0,-999,-99.99,,,-99.99,,2013-01-25 14:23:00,
2013-01-25 09:33:00,65.0,-99.9,30.28,NW,325,10.0,13.0,-999,-99.99,,,-99.99,,2013-01-25 14:33:00,
2013-01-25 09:42:00,66.0,-99.9,30.29,NNW,331,11.0,15.0,-999,-99.99,,,-99.99,,2013-01-25 14:42:00,
2013-01-25 09:53:00,66.0,-99.9,30.29,NNW,335,11.0,14.0,-999,-99.99,,,-99.99,,2013-01-25 14:53:00,
2013-01-25 10:03:00,67.0,-99.9,30.29,NNW,332,10.0,12.0,-999,-99.99,,,-99.99,,2013-01-25 15:03:00,
2013-01-25 10:13:00,67.0,-99.9,30.29,NNW,337,11.0,13.0,-999,-99.99,,,-99.99,,2013-01-25 15:13:00,
2013-01-25 10:23:00,67.0,-99.9,30.29,NNW,329,9.0,13.0,-999,-99.99,,,-99.99,,2013-01-25 15:23:00,
2013-01-25 10:33:00,68.0,-99.9,30.30,NNW,340,10.0,13.0,-999,-99.99,,,-99.99,,2013-01-25 15:33:00,
2013-01-25 10:43:00,67.0,-99.9,30.29,NNW,343,13.0,15.0,-999,-99.99,,,-99.99,,2013-01-25 15:43:00,
2013-01-25 10:53:00,67.0,-99.9,30.29,NNW,340,11.0,14.0,-999,-99.99,,,-99.99,,2013-01-25 15:53:00,
2013-01-25 11:04:00,68.0,-99.9,30.29,North,349,11.0,14.0,-999,-99.99,,,-99.99,,2013-01-25 16:04:00,
2013-01-25 11:12:00,68.0,-99.9,30.29,North,352,10.0,13.0,-999,-99.99,,,-99.99,,2013-01-25 16:12:00,
2013-01-25 11:23:00,69.0,-99.9,30.29,North,3,11.0,12.0,-999,-99.99,,,-99.99,,2013-01-25 16:23:00,
2013-01-25 11:33:00,69.0,-99.9,30.29,North,7,14.0,15.0,-999,-99.99,,,-99.99,,2013-01-25 16:33:00,
2013-01-25 11:43:00,69.0,-99.9,30.29,North,9,13.0,15.0,-999,-99.99,,,-99.99,,2013-01-25 16:43:00,
2013-01-25 11:53:00,69.0,-99.9,30.28,North,4,12.0,16.0,-999,-99.99,,,-99.99,,2013-01-25 16:53:00,
2013-01-25 12:03:00,69.0,-99.9,30.28,North,1,13.0,15.0,-999,-99.99,,,-99.99,,2013-01-25 17:03:00,
2013-01-25 12:12:00,69.0,-99.9,30.27,North,10,12.0,15.0,-999,-99.99,,,-99.99,,2013-01-25 17:12:00,
2013-01-25 12:23:00,69.0,-99.9,30.27,North,5,11.0,15.0,-999,-99.99,,,-99.99,,2013-01-25 17:23:00,
2013-01-25 12:33:00,70.0,-99.9,30.27,North,1,13.0,19.0,-999,-99.99,,,-99.99,,2013-01-25 17:33:00,
2013-01-25 12:43:00,70.0,-99.9,30.26,North,-999,15.0,16.0,-999,-99.99,,,-99.99,,2013-01-25 17:43:00,
2013-01-25 12:53:00,70.0,-99.9,30.26,North,6,13.0,16.0,-999,-99.99,,,-99.99,,2013-01-25 17:53:00,
2013-01-25 13:04:00,70.0,-99.9,30.25,North,10,14.0,18.0,-999,-99.99,,,-99.99,,2013-01-25 18:04:00,
2013-01-25 13:12:00,70.0,-99.9,30.24,North,9,15.0,17.0,-999,-99.99,,,-99.99,,2013-01-25 18:12:00,
2013-01-25 13:24:00,70.0,-99.9,30.24,North,8,14.0,16.0,-999,-99.99,,,-99.99,,2013-01-25 18:24:00,
2013-01-25 13:33:00,70.0,-99.9,30.23,North,8,13.0,15.0,-999,-99.99,,,-99.99,,2013-01-25 18:33:00,
2013-01-25 13:43:00,70.0,-99.9,30.23,North,10,12.0,15.0,-999,-99.99,,,-99.99,,2013-01-25 18:43:00,
2013-01-25 13:53:00,70.0,-99.9,30.22,NNE,13,12.0,15.0,-999,-99.99,,,-99.99,,2013-01-25 18:53:00,
2013-01-25 14:03:00,70.0,-99.9,30.22,North,10,11.0,15.0,-999,-99.99,,,-99.99,,2013-01-25 19:03:00,
2013-01-25 14:12:00,70.0,-99.9,30.22,North,9,9.0,14.0,-999,-99.99,,,-99.99,,2013-01-25 19:12:00,
2013-01-25 14:23:00,70.0,-99.9,30.22,North,8,11.0,13.0,-999,-99.99,,,-99.99,,2013-01-25 19:23:00,
2013-01-25 14:33:00,71.0,-99.9,30.22,North,7,10.0,13.0,-999,-99.99,,,-99.99,,2013-01-25 19:33:00,
2013-01-25 14:43:00,71.0,-99.9,30.21,North,7,11.0,13.0,-999,-99.99,,,-99.99,,2013-01-25 19:43:00,
2013-01-25 14:53:00,71.0,-99.9,30.21,North,357,11.0,15.0,-999,-99.99,,,-99.99,,2013-01-25 19:53:00,
2013-01-25 15:03:00,71.0,-99.9,30.21,North,4,10.0,13.0,-999,-99.99,,,-99.99,,2013-01-25 20:03:00,
2013-01-25 15:13:00,71.0,-99.9,30.20,North,355,8.0,12.0,-999,-99.99,,,-99.99,,2013-01-25 20:13:00,
2013-01-25 15:23:00,71.0,-99.9,30.20,NNE,12,9.0,12.0,-999,-99.99,,,-99.99,,2013-01-25 20:23:00,
2013-01-25 15:33:00,71.0,-99.9,30.20,North,11,8.0,12.0,-999,-99.99,,,-99.99,,2013-01-25 20:33:00,
2013-01-25 15:43:00,71.0,-99.9,30.19,North,8,11.0,15.0,-999,-99.99,,,-99.99,,2013-01-25 20:43:00,
2013-01-25 15:53:00,71.0,-99.9,30.19,North,8,10.0,13.0,-999,-99.99,,,-99.99,,2013-01-25 20:53:00,
2013-01-25 16:02:00,72.0,-99.9,30.19,North,10,9.0,12.0,-999,-99.99,,,-99.99,,2013-01-25 21:02:00,
2013-01-25 16:12:00,72.0,-99.9,30.20,NNE,23,5.0,9.0,-999,-99.99,,,-99.99,,2013-01-25 21:12:00,
2013-01-25 16:23:00,72.0,-99.9,30.19,NNE,17,6.0,11.0,-999,-99.99,,,-99.99,,2013-01-25 21:23:00,
2013-01-25 16:33:00,73.0,-99.9,30.20,NE,43,3.0,5.0,-999,-99.99,,,-99.99,,2013-01-25 21:33:00,
2013-01-25 16:43:00,74.0,-99.9,30.20,NNE,20,3.0,4.0,-999,-99.99,,,-99.99,,2013-01-25 21:43:00,
2013-01-25 16:52:00,73.0,-99.9,30.20,North,360,3.0,6.0,-999,-99.99,,,-99.99,,2013-01-25 21:52:00,
2013-01-25 17:03:00,74.0,-99.9,30.20,NE,55,6.0,6.0,-999,-99.99,,,-99.99,,2013-01-25 22:03:00,
2013-01-25 17:12:00,73.0,-99.9,30.21,NNE,31,4.0,6.0,-999,-99.99,,,-99.99,,2013-01-25 22:12:00,
2013-01-25 17:23:00,73.0,-99.9,30.21,NNE,32,5.0,7.0,-999,-99.99,,,-99.99,,2013-01-25 22:23:00,
2013-01-25 17:33:00,73.0,-99.9,30.21,NNE,12,8.0,10.0,-999,-99.99,,,-99.99,,2013-01-25 22:33:00,
2013-01-25 17:42:00,72.0,-99.9,30.21,North,349,5.0,11.0,-999,-99.99,,,-99.99,,2013-01-25 22:42:00,
2013-01-25 17:53:00,72.0,-99.9,30.21,NNE,31,7.0,9.0,-999,-99.99,,,-99.99,,2013-01-25 22:53:00,
2013-01-25 18:02:00,71.0,-99.9,30.21,NNW,329,7.0,10.0,-999,-99.99,,,-99.99,,2013-01-25 23:02:00,
2013-01-25 18:12:00,71.0,-99.9,30.21,NNW,341,8.0,11.0,-999,-99.99,,,-99.99,,2013-01-25 23:12:00,
2013-01-25 18:22:00,71.0,-99.9,30.21,NW,325,6.0,7.0,-999,-99.99,,,-99.99,,2013-01-25 23:22:00,
2013-01-25 18:32:00,71.0,-99.9,30.21,WNW,286,-999.0,5.0,-999,-99.99,,,-99.99,,2013-01-25 23:32:00,
2013-01-25 18:42:00,72.0,-99.9,30.21,East,89,0.0,4.0,-999,-99.99,,,-99.99,,2013-01-25 23:42:00,
2013-01-25 18:53:00,72.0,-99.9,30.21,ENE,63,4.0,7.0,-999,-99.99,,,-99.99,,2013-01-25 23:53:00,
2013-01-25 19:02:00,72.0,-99.9,30.21,ENE,78,3.0,6.0,-999,-99.99,,,-99.99,,2013-01-26 00:02:00,
2013-01-25 19:12:00,72.0,-99.9,30.21,NE,56,4.0,6.0,-999,-99.99,,,-99.99,,2013-01-26 00:12:00,
2013-01-25 19:22:00,72.0,-99.9,30.21,East,84,3.0,4.0,-999,-99.99,,,-99.99,,2013-01-26 00:22:00,
2013-01-25 19:33:00,72.0,-99.9,30.21,ENE,74,-999.0,2.0,-999,-99.99,,,-99.99,,2013-01-26 00:33:00,
2013-01-25 19:42:00,72.0,-99.9,30.21,ENE,75,5.0,6.0,-999,-99.99,,,-99.99,,2013-01-26 00:42:00,
2013-01-25 19:53:00,72.0,-99.9,30.21,ESE,109,4.0,5.0,-999,-99.99,,,-99.99,,2013-01-26 00:53:00,
2013-01-25 20:02:00,72.0,-99.9,30.22,ENE,73,4.0,8.0,-999,-99.99,,,-99.99,,2013-01-26 01:02:00,
2013-01-25 20:12:00,72.0,-99.9,30.22,ENE,74,1.0,4.0,-999,-99.99,,,-99.99,,2013-01-26 01:12:00,
2013-01-25 20:22:00,71.0,-99.9,30.22,SSW,198,1.0,3.0,-999,-99.99,,,-99.99,,2013-01-26 01:22:00,
2013-01-25 20:32:00,70.0,-99.9,30.22,NW,314,3.0,4.0,-999,-99.99,,,-99.99,,2013-01-26 01:32:00,
2013-01-25 20:42:00,69.0,-99.9,30.22,WNW,303,3.0,4.0,-999,-99.99,,,-99.99,,2013-01-26 01:42:00,
2013-01-25 20:52:00,69.0,-99.9,30.22,WNW,286,3.0,5.0,-999,-99.99,,,-99.99,,2013-01-26 01:52:00,
2013-01-25 21:02:00,69.0,-99.9,30.22,WNW,289,4.0,5.0,-999,-99.99,,,-99.99,,2013-01-26 02:02:00,
2013-01-25 21:12:00,69.0,-99.9,30.22,West,269,2.0,6.0,-999,-99.99,,,-99.99,,2013-01-26 02:12:00,
2013-01-25 21:22:00,69.0,-99.9,30.22,WNW,288,4.0,5.0,-999,-99.99,,,-99.99,,2013-01-26 02:22:00,
2013-01-25 21:32:00,69.0,-99.9,30.22,WNW,301,5.0,6.0,-999,-99.99,,,-99.99,,2013-01-26 02:32:00,
2013-01-25 21:42:00,69.0,-99.9,30.22,WNW,300,4.0,5.0,-999,-99.99,,,-99.99,,2013-01-26 02:42:00,
2013-01-25 21:53:00,69.0,-99.9,30.22,NW,305,6.0,7.0,-999,-99.99,,,-99.99,,2013-01-26 02:53:00,
2013-01-25 22:02:00,68.0,-99.9,30.22,WNW,298,5.0,7.0,-999,-99.99,,,-99.99,,2013-01-26 03:02:00,
2013-01-25 22:12:00,68.0,-99.9,30.22,NW,312,5.0,6.0,-999,-99.99,,,-99.99,,2013-01-26 03:12:00,
2013-01-25 22:22:00,69.0,-99.9,30.22,NW,312,6.0,7.0,-999,-99.99,,,-99.99,,2013-01-26 03:22:00,
2013-01-25 22:32:00,69.0,-99.9,30.22,NW,314,6.0,7.0,-999,-99.99,,,-99.99,,2013-01-26 03:32:00,
2013-01-25 22:43:00,69.0,-99.9,30.22,NW,310,6.0,7.0,-999,-99.99,,,-99.99,,2013-01-26 03:43:00,
2013-01-25 22:52:00,68.0,-99.9,30.22,NW,308,7.0,7.0,-999,-99.99,,,-99.99,,2013-01-26 03:52:00,
2013-01-25 23:02:00,68.0,-99.9,30.22,NW,304,6.0,7.0,-999,-99.99,,,-99.99,,2013-01-26 04:02:00,
2013-01-25 23:12:00,68.0,-99.9,30.22,NW,305,6.0,8.0,-999,-99.99,,,-99.99,,2013-01-26 04:12:00,
2013-01-25 23:22:00,68.0,-99.9,30.22,NW,313,6.0,9.0,-999,-99.99,,,-99.99,,2013-01-26 04:22:00,
2013-01-25 23:32:00,68.0,-99.9,30.22,NW,313,8.0,9.0,-999,-99.99,,,-99.99,,2013-01-26 04:32:00,
2013-01-25 23:43:00,68.0,-99.9,30.22,WNW,303,7.0,8.0,-999,-99.99,,,-99.99,,2013-01-26 04:43:00,
2013-01-25 23:52:00,67.0,-99.9,30.22,West,281,5.0,7.0,-999,-99.99,,,-99.99,,2013-01-26 04:52:00,